createdAt,value
2022-10-13T00:00:56.825Z,5.80
2022-10-13T00:03:23.716Z,6.45
2022-10-13T00:05:51.552Z,6.97
2022-10-13T00:08:21.356Z,6.60
2022-10-13T00:10:51.056Z,6.17
2022-10-13T00:13:19.427Z,6.25
2022-10-13T00:15:47.382Z,6.05
2022-10-13T00:18:15.717Z,7.00
2022-10-13T00:20:45.604Z,6.70
2022-10-13T00:23:14.033Z,6.57
2022-10-13T00:25:46.242Z,6.47
2022-10-13T00:28:14.709Z,6.63
2022-10-13T00:30:42.235Z,6.50
2022-10-13T00:33:10.426Z,6.20
2022-10-13T00:35:42.762Z,6.47
2022-10-13T00:38:09.934Z,6.78
2022-10-13T00:40:48.279Z,6.43
2022-10-13T00:43:49.203Z,6.60
2022-10-13T00:46:16.175Z,6.22
2022-10-13T00:48:44.707Z,6.87
2022-10-13T00:51:15.464Z,6.78
2022-10-13T00:53:43.011Z,6.72
2022-10-13T00:56:12.773Z,6.90
2022-10-13T00:58:40.481Z,6.40
2022-10-13T01:01:08.343Z,7.57
2022-10-13T01:03:36.378Z,6.30
2022-10-13T01:06:05.554Z,6.43
2022-10-13T01:08:33.497Z,6.97
2022-10-13T01:11:24.429Z,6.47
2022-10-13T01:14:00.053Z,6.70
2022-10-13T01:16:45.541Z,6.50
2022-10-13T01:19:51.178Z,7.55
2022-10-13T01:22:45.935Z,6.28
2022-10-13T01:25:45.328Z,6.40
2022-10-13T01:28:41.427Z,6.20
2022-10-13T01:31:17.212Z,7.05
2022-10-13T01:33:52.983Z,6.25
2022-10-13T01:36:33.283Z,6.18
2022-10-13T01:39:08.024Z,6.03
2022-10-13T01:41:40.953Z,6.47
2022-10-13T01:44:18.013Z,5.80
2022-10-13T01:46:47.179Z,6.50
2022-10-13T01:49:18.889Z,6.32
2022-10-13T01:51:47.584Z,6.35
2022-10-13T01:54:14.761Z,6.93
2022-10-13T01:56:41.661Z,6.35
2022-10-13T01:59:14.737Z,6.55
2022-10-13T02:02:17.406Z,7.43
2022-10-13T02:04:59.274Z,7.10
2022-10-13T02:07:38.025Z,6.33
2022-10-13T02:10:14.892Z,6.80
2022-10-13T02:12:59.691Z,6.47
2022-10-13T02:15:33.193Z,6.50
2022-10-13T02:18:02.158Z,6.85
2022-10-13T02:20:30.590Z,6.03
2022-10-13T02:23:02.815Z,6.82
2022-10-13T02:25:31.049Z,6.30
2022-10-13T02:28:00.538Z,6.97
2022-10-13T02:30:31.244Z,6.72
2022-10-13T02:32:58.185Z,6.40
2022-10-13T02:35:25.245Z,6.90
2022-10-13T02:37:52.228Z,7.03
2022-10-13T02:40:19.053Z,7.25
2022-10-13T02:42:45.907Z,6.90
2022-10-13T02:45:13.007Z,7.10
2022-10-13T02:47:39.871Z,6.63
2022-10-13T02:50:07.601Z,6.20
2022-10-13T02:52:34.472Z,6.93
2022-10-13T02:55:01.379Z,6.53
2022-10-13T02:57:28.302Z,6.53
2022-10-13T02:59:55.175Z,6.30
2022-10-13T03:02:22.289Z,6.72
2022-10-13T03:04:49.859Z,7.85
2022-10-13T03:07:16.689Z,6.75
2022-10-13T03:09:43.595Z,6.17
2022-10-13T03:12:10.559Z,7.00
2022-10-13T03:14:37.598Z,7.63
2022-10-13T03:17:04.478Z,6.60
2022-10-13T03:19:32.188Z,6.53
2022-10-13T03:21:59.023Z,6.83
2022-10-13T03:24:25.974Z,7.18
2022-10-13T03:26:52.832Z,6.78
2022-10-13T03:29:20.040Z,6.70
2022-10-13T03:31:46.978Z,7.28
2022-10-13T03:34:16.726Z,6.67
2022-10-13T03:36:43.694Z,6.95
2022-10-13T03:39:10.570Z,7.25
2022-10-13T03:41:37.545Z,6.85
2022-10-13T03:44:04.640Z,6.88
2022-10-13T03:46:31.920Z,6.60
2022-10-13T03:48:58.816Z,6.45
2022-10-13T03:51:25.984Z,6.82
2022-10-13T03:53:53.992Z,6.18
2022-10-13T03:56:24.141Z,7.88
2022-10-13T03:59:01.275Z,6.43
2022-10-13T04:01:30.402Z,6.90
2022-10-13T04:03:58.807Z,7.28
2022-10-13T04:06:26.634Z,7.03
2022-10-13T04:08:54.110Z,6.85
2022-10-13T04:11:21.846Z,6.57
2022-10-13T04:13:48.703Z,7.22
2022-10-13T04:16:18.737Z,6.95
2022-10-13T04:18:50.181Z,7.15
2022-10-13T04:21:17.050Z,7.20
2022-10-13T04:23:43.910Z,6.87
2022-10-13T04:26:22.488Z,6.88
2022-10-13T04:28:50.748Z,7.00
2022-10-13T04:31:18.148Z,7.35
2022-10-13T04:33:45.995Z,7.70
2022-10-13T04:36:14.308Z,6.70
2022-10-13T04:38:42.793Z,8.10
2022-10-13T04:41:10.544Z,7.20
2022-10-13T04:43:37.484Z,6.85
2022-10-13T04:46:10.691Z,6.90
2022-10-13T04:48:37.757Z,7.13
2022-10-13T04:51:08.023Z,6.18
2022-10-13T04:53:34.986Z,7.65
2022-10-13T04:56:03.958Z,6.70
2022-10-13T04:58:31.313Z,7.18
2022-10-13T05:00:58.589Z,7.83
2022-10-13T05:03:26.165Z,7.38
2022-10-13T05:05:53.626Z,7.03
2022-10-13T05:08:21.398Z,7.22
2022-10-13T05:10:59.174Z,7.20
2022-10-13T05:13:27.288Z,7.43
2022-10-13T05:15:54.175Z,7.15
2022-10-13T05:18:21.184Z,6.90
2022-10-13T05:20:48.072Z,7.18
2022-10-13T05:23:15.822Z,7.63
2022-10-13T05:25:43.150Z,7.00
2022-10-13T05:28:10.144Z,7.65
2022-10-13T05:30:37.007Z,6.95
2022-10-13T05:33:03.947Z,7.97
2022-10-13T05:35:31.141Z,7.30
2022-10-13T05:37:58.003Z,7.13
2022-10-13T05:40:25.031Z,7.63
2022-10-13T05:42:52.847Z,6.97
2022-10-13T05:45:21.811Z,7.07
2022-10-13T05:47:48.660Z,8.02
2022-10-13T05:50:15.672Z,7.13
2022-10-13T05:52:43.376Z,7.13
2022-10-13T05:55:13.693Z,7.63
2022-10-13T05:57:44.319Z,7.30
2022-10-13T06:00:17.225Z,7.43
2022-10-13T06:02:53.685Z,7.23
2022-10-13T06:05:24.107Z,7.57
2022-10-13T06:07:51.266Z,7.32
2022-10-13T06:10:18.908Z,7.32
2022-10-13T06:12:45.950Z,7.35
2022-10-13T06:15:12.976Z,7.93
2022-10-13T06:17:40.200Z,7.65
2022-10-13T06:20:08.883Z,8.07
2022-10-13T06:22:37.088Z,7.97
2022-10-13T06:25:06.023Z,7.85
2022-10-13T06:27:33.446Z,7.70
2022-10-13T06:30:00.465Z,7.53
2022-10-13T06:32:27.573Z,8.25
2022-10-13T06:34:55.117Z,7.78
2022-10-13T06:37:26.934Z,8.40
2022-10-13T06:39:54.643Z,7.60
2022-10-13T06:42:22.076Z,7.45
2022-10-13T06:44:49.563Z,7.03
2022-10-13T06:47:16.518Z,7.25
2022-10-13T06:49:43.521Z,8.55
2022-10-13T06:52:10.565Z,8.10
2022-10-13T06:54:37.553Z,7.72
2022-10-13T06:57:06.591Z,7.50
2022-10-13T06:59:33.758Z,7.72
2022-10-13T07:02:00.692Z,7.20
2022-10-13T07:04:28.516Z,8.07
2022-10-13T07:06:55.676Z,7.90
2022-10-13T07:09:22.885Z,8.23
2022-10-13T07:11:50.535Z,8.30
2022-10-13T07:14:17.543Z,8.07
2022-10-13T07:16:44.640Z,7.73
2022-10-13T07:19:11.586Z,7.95
2022-10-13T07:21:38.689Z,8.15
2022-10-13T07:24:06.126Z,8.35
2022-10-13T07:26:34.204Z,8.75
2022-10-13T07:29:02.258Z,8.53
2022-10-13T07:31:29.625Z,8.65
2022-10-13T07:33:59.825Z,9.48
2022-10-13T07:36:27.781Z,9.30
2022-10-13T07:38:54.877Z,8.82
2022-10-13T07:41:21.906Z,8.50
2022-10-13T07:43:48.903Z,8.73
2022-10-13T07:46:16.001Z,8.80
2022-10-13T07:48:43.153Z,9.07
2022-10-13T07:51:12.190Z,8.80
2022-10-13T07:53:40.365Z,9.40
2022-10-13T07:56:10.766Z,9.02
2022-10-13T07:58:39.123Z,9.30
2022-10-13T08:01:07.078Z,8.88
2022-10-13T08:03:34.267Z,9.10
2022-10-13T08:06:02.937Z,9.10
2022-10-13T08:08:30.576Z,8.80
2022-10-13T08:11:10.671Z,9.68
2022-10-13T08:13:39.131Z,9.55
2022-10-13T08:16:06.295Z,10.45
2022-10-13T08:18:33.480Z,10.33
2022-10-13T08:23:50.581Z,11.30
2022-10-13T08:26:23.631Z,10.50
2022-10-13T08:29:09.594Z,10.75
2022-10-13T08:31:38.630Z,9.93
2022-10-13T08:34:05.791Z,10.70
2022-10-13T08:36:32.836Z,10.88
2022-10-13T08:38:59.897Z,10.82
2022-10-13T08:41:28.623Z,9.70
2022-10-13T08:47:32.995Z,10.52
2022-10-13T08:50:04.071Z,10.02
2022-10-13T08:52:48.681Z,10.68
2022-10-13T08:55:33.606Z,10.85
2022-10-13T08:58:02.695Z,10.53
2022-10-13T09:00:30.875Z,9.98
2022-10-13T09:03:30.582Z,10.30
2022-10-13T09:06:11.761Z,9.85
2022-10-13T09:08:44.355Z,9.68
2022-10-13T09:11:13.084Z,9.83
2022-10-13T09:13:40.766Z,10.02
2022-10-13T09:16:08.169Z,10.20
2022-10-13T09:18:35.837Z,9.65
2022-10-13T09:21:25.510Z,9.30
2022-10-13T09:23:54.317Z,9.73
2022-10-13T09:26:25.528Z,9.13
2022-10-13T09:28:53.073Z,8.27
2022-10-13T09:31:30.502Z,8.18
2022-10-13T09:34:15.764Z,7.80
2022-10-13T09:37:01.909Z,7.93
2022-10-13T09:39:30.107Z,7.10
2022-10-13T09:42:20.029Z,7.53
2022-10-13T09:44:48.960Z,8.18
2022-10-13T09:47:25.563Z,7.82
2022-10-13T09:50:18.845Z,7.97
2022-10-13T09:52:47.936Z,7.47
2022-10-13T09:55:32.864Z,7.80
2022-10-13T09:58:14.865Z,7.00
2022-10-13T10:00:42.270Z,7.00
2022-10-13T10:03:26.313Z,7.30
2022-10-13T10:05:59.894Z,7.47
2022-10-13T10:08:58.103Z,6.80
2022-10-13T10:11:45.655Z,6.90
2022-10-13T10:14:18.678Z,6.07
2022-10-13T10:16:54.257Z,6.23
2022-10-13T10:19:49.694Z,6.00
2022-10-13T10:22:34.847Z,6.30
2022-10-13T10:25:10.863Z,6.07
2022-10-13T10:27:44.106Z,6.10
2022-10-13T10:30:19.692Z,5.97
2022-10-13T10:33:13.647Z,6.72
2022-10-13T10:35:52.611Z,6.60
2022-10-13T10:38:53.337Z,5.93
2022-10-13T10:41:46.723Z,6.05
2022-10-13T10:44:48.260Z,6.17
2022-10-13T10:47:30.600Z,6.22
2022-10-13T10:50:03.810Z,6.40
2022-10-13T10:52:53.734Z,6.35
2022-10-13T10:55:33.264Z,6.20
2022-10-13T10:58:22.618Z,6.30
2022-10-13T11:01:16.857Z,6.57
2022-10-13T11:03:55.355Z,5.80
2022-10-13T11:06:24.639Z,6.65
2022-10-13T11:08:51.594Z,6.70
2022-10-13T11:11:29.412Z,6.13
2022-10-13T11:14:01.929Z,6.43
2022-10-13T11:16:59.897Z,6.60
2022-10-13T11:19:33.634Z,6.82
2022-10-13T11:22:00.297Z,6.75
2022-10-13T11:24:42.351Z,7.37
2022-10-13T11:27:11.935Z,7.60
2022-10-13T11:30:00.064Z,7.95
2022-10-13T11:32:27.345Z,7.75
2022-10-13T11:35:21.693Z,8.20
2022-10-13T11:38:06.881Z,8.30
2022-10-13T11:41:03.203Z,8.82
2022-10-13T11:43:53.745Z,8.93
2022-10-13T11:46:20.971Z,8.52
2022-10-13T11:49:08.974Z,8.73
2022-10-13T11:52:12.580Z,8.90
2022-10-13T11:54:54.542Z,9.40
2022-10-13T11:57:24.549Z,8.98
2022-10-13T11:59:55.920Z,9.00
2022-10-13T12:02:26.098Z,9.35
2022-10-13T12:05:07.737Z,8.07
2022-10-13T12:07:39.693Z,7.93
2022-10-13T12:10:15.278Z,8.15
2022-10-13T12:12:50.027Z,8.68
2022-10-13T12:15:35.493Z,8.27
2022-10-13T12:18:19.759Z,7.73
2022-10-13T12:20:56.418Z,7.80
2022-10-13T12:23:24.183Z,8.13
2022-10-13T12:25:57.758Z,8.02
2022-10-13T12:28:31.121Z,7.80
2022-10-13T12:31:00.087Z,7.90
2022-10-13T12:33:38.041Z,7.90
2022-10-13T12:36:17.853Z,7.28
2022-10-13T12:38:50.766Z,7.82
2022-10-13T12:41:36.448Z,7.80
2022-10-13T12:44:06.733Z,7.87
2022-10-13T12:46:49.481Z,7.57
2022-10-13T12:49:16.381Z,7.32
2022-10-13T12:51:46.851Z,7.45
2022-10-13T12:54:18.609Z,6.97
2022-10-13T12:56:45.933Z,7.30
2022-10-13T12:59:18.366Z,7.35
2022-10-13T13:01:46.450Z,7.35
2022-10-13T13:04:18.150Z,7.25
2022-10-13T13:07:03.065Z,7.50
2022-10-13T13:09:41.364Z,6.70
2022-10-13T13:12:11.079Z,6.93
2022-10-13T13:14:39.287Z,7.18
2022-10-13T13:17:17.518Z,7.60
2022-10-13T13:19:55.889Z,7.47
2022-10-13T13:22:23.014Z,7.10
2022-10-13T13:24:51.880Z,7.72
2022-10-13T13:27:32.369Z,8.35
2022-10-13T13:29:59.346Z,7.80
2022-10-13T13:32:27.989Z,8.30
2022-10-13T13:34:55.458Z,7.33
2022-10-13T13:37:35.698Z,7.38
2022-10-13T13:40:02.872Z,8.68
2022-10-13T13:42:30.420Z,8.35
2022-10-13T13:44:57.564Z,9.10
2022-10-13T13:47:27.002Z,8.37
2022-10-13T13:49:57.745Z,8.00
2022-10-13T13:52:25.791Z,8.65
2022-10-13T13:54:53.445Z,9.00
2022-10-13T13:57:20.962Z,8.90
2022-10-13T13:59:48.114Z,9.10
2022-10-13T14:02:18.523Z,8.80
2022-10-13T14:04:46.577Z,8.57
2022-10-13T14:07:14.114Z,8.77
2022-10-13T14:09:41.779Z,8.52
2022-10-13T14:12:09.191Z,8.97
2022-10-13T14:14:36.124Z,8.68
2022-10-13T14:17:05.137Z,8.95
2022-10-13T14:19:32.936Z,8.38
2022-10-13T14:22:04.729Z,8.02
2022-10-13T14:24:34.473Z,8.60
2022-10-13T14:27:01.340Z,8.63
2022-10-13T14:29:28.379Z,8.55
2022-10-13T14:31:55.391Z,8.85
2022-10-13T14:34:22.479Z,8.60
2022-10-13T14:36:49.512Z,8.47
2022-10-13T14:39:16.453Z,8.57
2022-10-13T14:41:43.601Z,8.50
2022-10-13T14:44:12.712Z,8.35
2022-10-13T14:46:40.662Z,8.18
2022-10-13T14:49:07.657Z,8.43
2022-10-13T14:51:34.632Z,8.90
2022-10-13T14:54:02.907Z,7.97
2022-10-13T14:56:30.978Z,8.00
2022-10-13T14:58:59.633Z,8.25
2022-10-13T15:01:26.909Z,7.70
2022-10-13T15:03:54.133Z,7.57
2022-10-13T15:06:24.593Z,8.57
2022-10-13T15:08:52.063Z,8.32
2022-10-13T15:11:21.597Z,8.00
2022-10-13T15:13:48.657Z,9.10
2022-10-13T15:16:24.284Z,8.38
2022-10-13T15:18:51.307Z,8.23
2022-10-13T15:21:18.993Z,7.72
2022-10-13T15:23:46.463Z,7.72
2022-10-13T15:26:15.943Z,7.80
2022-10-13T15:28:46.095Z,8.15
2022-10-13T15:31:13.406Z,9.00
2022-10-13T15:33:46.592Z,8.75
2022-10-13T15:36:14.210Z,8.07
2022-10-13T15:38:41.180Z,8.50
2022-10-13T15:41:08.584Z,8.38
2022-10-13T15:43:35.728Z,8.77
2022-10-13T15:46:05.634Z,8.45
2022-10-13T15:48:33.614Z,8.18
2022-10-13T15:51:01.169Z,8.60
2022-10-13T15:53:30.211Z,8.02
2022-10-13T15:55:57.105Z,7.50
2022-10-13T15:58:23.990Z,8.20
2022-10-13T16:00:50.937Z,8.02
2022-10-13T16:03:18.767Z,8.20
2022-10-13T16:05:46.815Z,8.18
2022-10-13T16:08:14.857Z,8.43
2022-10-13T16:10:43.218Z,7.85
2022-10-13T16:13:14.002Z,9.20
2022-10-13T16:15:41.877Z,8.60
2022-10-13T16:18:08.807Z,8.48
2022-10-13T16:20:38.038Z,8.15
2022-10-13T16:23:05.601Z,8.32
2022-10-13T16:25:32.508Z,8.48
2022-10-13T16:28:00.998Z,7.40
2022-10-13T16:30:30.590Z,9.00
2022-10-13T16:32:58.233Z,8.80
2022-10-13T16:35:27.054Z,8.38
2022-10-13T16:37:53.909Z,9.43
2022-10-13T16:40:20.807Z,8.90
2022-10-13T16:42:48.280Z,8.93
2022-10-13T16:45:15.552Z,10.05
2022-10-13T16:47:42.645Z,8.30
2022-10-13T16:50:10.200Z,9.65
2022-10-13T16:52:37.940Z,8.20
2022-10-13T16:55:06.359Z,9.10
2022-10-13T16:57:33.423Z,9.23
2022-10-13T17:00:00.368Z,9.07
2022-10-13T17:02:27.208Z,9.65
2022-10-13T17:04:54.397Z,9.90
2022-10-13T17:07:21.549Z,8.98
2022-10-13T17:09:48.568Z,10.45
2022-10-13T17:12:15.519Z,9.55
2022-10-13T17:14:42.381Z,10.20
2022-10-13T17:17:09.346Z,9.97
2022-10-13T17:19:36.267Z,10.23
2022-10-13T17:22:03.102Z,11.82
2022-10-13T17:24:30.291Z,10.27
2022-10-13T17:26:57.347Z,11.45
2022-10-13T17:29:24.427Z,11.60
2022-10-13T17:31:51.350Z,11.48
2022-10-13T17:34:18.307Z,11.57
2022-10-13T17:36:45.342Z,12.23
2022-10-13T17:39:12.236Z,11.98
2022-10-13T17:41:39.517Z,12.43
2022-10-13T17:44:06.592Z,12.45
2022-10-13T17:46:38.480Z,13.05
2022-10-13T17:49:08.179Z,13.38
2022-10-13T17:51:35.459Z,11.93
2022-10-13T17:54:02.208Z,12.23
2022-10-13T17:56:29.324Z,12.02
2022-10-13T17:58:57.030Z,11.60
2022-10-13T18:01:30.069Z,12.18
2022-10-13T18:03:59.766Z,12.27
2022-10-13T18:06:37.995Z,11.40
2022-10-13T18:09:11.215Z,11.45
2022-10-13T18:11:39.490Z,11.07
2022-10-13T18:14:07.153Z,11.02
2022-10-13T18:16:35.233Z,10.85
2022-10-13T18:19:02.926Z,10.30
2022-10-13T18:21:29.871Z,10.40
2022-10-13T18:23:59.455Z,9.90
2022-10-13T18:26:29.126Z,9.75
2022-10-13T18:28:57.374Z,9.60
2022-10-13T18:31:27.801Z,8.93
2022-10-13T18:33:56.354Z,9.00
2022-10-13T18:36:26.231Z,9.52
2022-10-13T18:38:55.308Z,8.77
2022-10-13T18:41:24.656Z,9.73
2022-10-13T18:43:51.978Z,9.27
2022-10-13T18:46:19.432Z,9.82
2022-10-13T18:48:46.552Z,9.73
2022-10-13T18:51:15.617Z,9.13
2022-10-13T18:53:47.119Z,8.98
2022-10-13T18:56:26.392Z,8.63
2022-10-13T18:58:59.334Z,8.00
2022-10-13T19:01:29.131Z,7.70
2022-10-13T19:03:56.714Z,7.13
2022-10-13T19:06:27.221Z,7.30
2022-10-13T19:09:00.872Z,6.73
2022-10-13T19:11:29.412Z,5.95
2022-10-13T19:13:57.629Z,6.30
2022-10-13T19:16:26.496Z,6.28
2022-10-13T19:18:53.548Z,6.32
2022-10-13T19:21:21.423Z,5.57
2022-10-13T19:23:49.216Z,5.93
2022-10-13T19:26:19.852Z,5.35
2022-10-13T19:28:47.577Z,5.00
2022-10-13T19:31:17.588Z,6.15
2022-10-13T19:33:47.310Z,6.00
2022-10-13T19:36:32.693Z,5.28
2022-10-13T19:39:00.265Z,5.47
2022-10-13T19:41:29.626Z,5.40
2022-10-13T19:43:56.594Z,5.68
2022-10-13T19:46:23.677Z,6.00
2022-10-13T19:48:50.803Z,5.53
2022-10-13T19:51:18.608Z,5.70
2022-10-13T19:53:45.643Z,6.35
2022-10-13T19:56:31.749Z,6.07
2022-10-13T19:58:59.158Z,6.30
2022-10-13T20:01:26.445Z,6.13
2022-10-13T20:03:53.535Z,6.22
2022-10-13T20:06:21.200Z,6.65
2022-10-13T20:08:48.873Z,6.32
2022-10-13T20:11:23.328Z,6.33
2022-10-13T20:13:51.057Z,6.50
2022-10-13T20:16:20.578Z,7.32
2022-10-13T20:18:52.675Z,6.53
2022-10-13T20:21:19.607Z,6.32
2022-10-13T20:23:46.856Z,6.53
2022-10-13T20:26:14.373Z,6.03
2022-10-13T20:28:43.727Z,6.47
2022-10-13T20:31:12.990Z,6.35
2022-10-13T20:33:40.602Z,6.40
2022-10-13T20:36:11.957Z,5.77
2022-10-13T20:38:39.058Z,5.65
2022-10-13T20:41:06.465Z,5.70
2022-10-13T20:43:34.531Z,6.05
2022-10-13T20:46:07.353Z,5.32
2022-10-13T20:49:05.276Z,5.73
2022-10-13T20:51:23.943Z,5.75
2022-10-13T20:53:50.903Z,4.57
2022-10-13T20:56:21.396Z,5.35
2022-10-13T20:58:48.412Z,5.15
2022-10-13T21:01:16.845Z,5.63
2022-10-13T21:03:43.812Z,5.88
2022-10-13T21:06:13.440Z,5.75
2022-10-13T21:08:40.724Z,7.15
2022-10-13T21:11:11.127Z,7.63
2022-10-13T21:13:39.718Z,9.13
2022-10-13T21:16:12.894Z,8.48
2022-10-13T21:18:40.164Z,9.98
2022-10-13T21:21:10.070Z,9.27
2022-10-13T21:23:37.722Z,9.88
2022-10-13T21:26:06.477Z,10.57
2022-10-13T21:28:36.540Z,10.80
2022-10-13T21:31:08.856Z,10.30
2022-10-13T21:33:37.984Z,11.02
2022-10-13T21:36:14.633Z,11.20
2022-10-13T21:38:42.722Z,11.17
2022-10-13T21:41:11.652Z,11.40
2022-10-13T21:43:38.879Z,11.45
2022-10-13T21:46:17.423Z,10.98
2022-10-13T21:48:46.013Z,12.10
2022-10-13T21:51:20.498Z,10.97
2022-10-13T21:53:55.186Z,11.30
2022-10-13T21:56:22.738Z,11.75
2022-10-13T21:58:49.844Z,10.85
2022-10-13T22:01:17.851Z,11.50
2022-10-13T22:03:47.248Z,11.13
2022-10-13T22:06:19.171Z,12.00
2022-10-13T22:08:48.912Z,11.30
2022-10-13T22:11:17.246Z,10.32
2022-10-13T22:13:44.492Z,10.10
2022-10-13T22:16:17.147Z,10.27
2022-10-13T22:18:44.173Z,10.65
2022-10-13T22:21:16.101Z,10.98
2022-10-13T22:23:43.810Z,9.50
2022-10-13T22:26:11.057Z,9.25
2022-10-13T22:28:39.081Z,9.37
2022-10-13T22:31:07.897Z,8.93
2022-10-13T22:33:36.382Z,10.43
2022-10-13T22:36:11.540Z,9.93
2022-10-13T22:38:38.549Z,10.43
2022-10-13T22:41:07.007Z,9.33
2022-10-13T22:43:34.849Z,9.40
2022-10-13T22:46:04.571Z,9.93
2022-10-13T22:48:36.940Z,8.90
2022-10-13T22:51:07.413Z,9.25
2022-10-13T22:53:34.613Z,8.97
2022-10-13T22:56:06.016Z,9.18
2022-10-13T22:58:33.193Z,8.43
2022-10-13T23:01:14.731Z,9.85
2022-10-13T23:03:41.856Z,9.75
2022-10-13T23:06:14.127Z,9.93
2022-10-13T23:08:41.773Z,8.95
2022-10-13T23:11:09.243Z,8.90
2022-10-13T23:13:36.715Z,9.82
2022-10-13T23:16:25.550Z,10.15
2022-10-13T23:18:52.737Z,8.30
2022-10-13T23:21:22.119Z,7.95
2022-10-13T23:23:54.990Z,11.75
2022-10-13T23:26:21.928Z,8.73
2022-10-13T23:28:48.796Z,9.43
2022-10-13T23:31:17.709Z,7.87
2022-10-13T23:33:45.379Z,9.18
2022-10-13T23:36:24.328Z,8.80
2022-10-13T23:38:56.341Z,8.20
2022-10-13T23:41:23.622Z,7.82
2022-10-13T23:43:50.687Z,7.50
2022-10-13T23:46:17.610Z,7.85
2022-10-13T23:48:44.697Z,7.88
2022-10-13T23:51:14.778Z,8.55
2022-10-13T23:53:42.379Z,8.70
2022-10-13T23:56:11.125Z,8.53
2022-10-13T23:58:40.159Z,8.52
